Terminal Aerodrome Forecast
Issued by NWS

Current Version | Previous Version | Text Only | Print | Product List | Glossary On
Versions: 1 2 3 4 5 6 7 8 9 10 11 12 13 14 15 16 17 18 19 20 21 22
739
FTUS41 KPBZ 270539
TAFMGW
TAF
KMGW 270539Z 2706/2806 00000KT P6SM SKC
     FM270730 11003KT P6SM -SHRA BKN030
     FM271100 11003KT P6SM VCSH BKN015
     FM271600 27003KT P6SM BKN025
     FM271900 29005KT P6SM BKN040=

USA.gov is the U.S. government's official web portal to all federal, state and local government web resources and services.